sensor_id;sensor_type;location;lat;lon;timestamp;pressure;altitude;pressure_sealevel;temperature;humidity
6833;BME280;3454;42.654;23.378;2023-07-13T00:02:15;65454.59;;;23.37;60.10
6833;BME280;3454;42.654;23.378;2023-07-13T00:04:41;65451.25;;;23.34;60.17
6833;BME280;3454;42.654;23.378;2023-07-13T00:07:07;65458.47;;;23.41;60.51
6833;BME280;3454;42.654;23.378;2023-07-13T00:09:33;65458.47;;;23.41;59.91
6833;BME280;3454;42.654;23.378;2023-07-13T00:11:59;65461.41;;;23.46;60.00
6833;BME280;3454;42.654;23.378;2023-07-13T00:14:26;65470.09;;;23.51;59.76
6833;BME280;3454;42.654;23.378;2023-07-13T00:16:52;65464.00;;;23.46;60.33
6833;BME280;3454;42.654;23.378;2023-07-13T00:19:18;65476.00;;;23.54;60.30
6833;BME280;3454;42.654;23.378;2023-07-13T00:21:50;65475.63;;;23.56;61.18
6833;BME280;3454;42.654;23.378;2023-07-13T00:24:17;65471.75;;;23.53;61.43
6833;BME280;3454;42.654;23.378;2023-07-13T00:26:49;65472.50;;;23.56;61.97
6833;BME280;3454;42.654;23.378;2023-07-13T00:29:14;65464.00;;;23.46;62.19
6833;BME280;3454;42.654;23.378;2023-07-13T00:31:41;65455.69;;;23.38;61.94
6833;BME280;3454;42.654;23.378;2023-07-13T00:34:07;65446.59;;;23.27;61.55
6833;BME280;3454;42.654;23.378;2023-07-13T00:36:33;65442.16;;;23.23;61.94
6833;BME280;3454;42.654;23.378;2023-07-13T00:38:59;65412.66;;;23.01;62.83
6833;BME280;3454;42.654;23.378;2023-07-13T00:41:25;65406.38;;;22.93;63.93
6833;BME280;3454;42.654;23.378;2023-07-13T00:43:51;65399.38;;;22.89;64.21
6833;BME280;3454;42.654;23.378;2023-07-13T00:46:23;65378.69;;;22.68;65.52
6833;BME280;3454;42.654;23.378;2023-07-13T00:48:59;65360.94;;;22.52;67.36
6833;BME280;3454;42.654;23.378;2023-07-13T00:51:56;65358.19;;;22.49;67.90
6833;BME280;3454;42.654;23.378;2023-07-13T00:54:43;65352.09;;;22.44;68.49
6833;BME280;3454;42.654;23.378;2023-07-13T00:57:14;65343.78;;;22.36;69.02
6833;BME280;3454;42.654;23.378;2023-07-13T00:59:45;65320.19;;;22.17;70.10
6833;BME280;3454;42.654;23.378;2023-07-13T01:02:13;65317.22;;;22.12;70.60
6833;BME280;3454;42.654;23.378;2023-07-13T01:04:38;65314.81;;;22.08;70.84
6833;BME280;3454;42.654;23.378;2023-07-13T01:07:05;65321.47;;;22.14;71.15
6833;BME280;3454;42.654;23.378;2023-07-13T01:09:31;65324.22;;;22.16;71.13
6833;BME280;3454;42.654;23.378;2023-07-13T01:11:57;65332.53;;;22.24;70.46
6833;BME280;3454;42.654;23.378;2023-07-13T01:14:22;65336.78;;;22.32;69.89
6833;BME280;3454;42.654;23.378;2023-07-13T01:16:48;65344.34;;;22.37;70.53
6833;BME280;3454;42.654;23.378;2023-07-13T01:19:35;65351.53;;;22.43;70.26
6833;BME280;3454;42.654;23.378;2023-07-13T01:22:18;65337.13;;;22.30;70.58
6833;BME280;3454;42.654;23.378;2023-07-13T01:24:47;65325.53;;;22.20;71.48
6833;BME280;3454;42.654;23.378;2023-07-13T01:27:16;65322.19;;;22.17;71.59
6833;BME280;3454;42.654;23.378;2023-07-13T01:29:44;65307.47;;;22.06;71.32
6833;BME280;3454;42.654;23.378;2023-07-13T01:32:18;65311.13;;;22.07;70.71
6833;BME280;3454;42.654;23.378;2023-07-13T01:34:52;65317.97;;;22.15;70.28
6833;BME280;3454;42.654;23.378;2023-07-13T01:37:20;65302.06;;;21.96;71.39
6833;BME280;3454;42.654;23.378;2023-07-13T01:39:46;65296.75;;;21.94;71.70
6833;BME280;3454;42.654;23.378;2023-07-13T01:42:12;65305.25;;;22.04;70.98
6833;BME280;3454;42.654;23.378;2023-07-13T01:44:39;65301.53;;;21.96;71.27
6833;BME280;3454;42.654;23.378;2023-07-13T01:47:05;65302.63;;;21.97;71.62
6833;BME280;3454;42.654;23.378;2023-07-13T01:49:30;65305.59;;;22.02;70.93
6833;BME280;3454;42.654;23.378;2023-07-13T01:51:56;65314.81;;;22.08;70.70
6833;BME280;3454;42.654;23.378;2023-07-13T01:54:22;65316.13;;;22.11;70.98
6833;BME280;3454;42.654;23.378;2023-07-13T01:56:47;65311.13;;;22.07;72.57
6833;BME280;3454;42.654;23.378;2023-07-13T01:59:13;65301.91;;;22.01;71.94
6833;BME280;3454;42.654;23.378;2023-07-13T02:01:39;65307.63;;;22.01;71.99
6833;BME280;3454;42.654;23.378;2023-07-13T02:04:05;65300.41;;;21.95;73.16
6833;BME280;3454;42.654;23.378;2023-07-13T02:06:30;65300.97;;;21.95;73.14
6833;BME280;3454;42.654;23.378;2023-07-13T02:08:56;65264.28;;;21.66;74.81
6833;BME280;3454;42.654;23.378;2023-07-13T02:11:21;65248.94;;;21.48;76.46
6833;BME280;3454;42.654;23.378;2023-07-13T02:13:47;65239.75;;;21.42;76.78
6833;BME280;3454;42.654;23.378;2023-07-13T02:16:13;65245.28;;;21.47;77.54
6833;BME280;3454;42.654;23.378;2023-07-13T02:18:38;65248.59;;;21.50;77.07
6833;BME280;3454;42.654;23.378;2023-07-13T02:21:04;65237.53;;;21.40;77.54
6833;BME280;3454;42.654;23.378;2023-07-13T02:23:29;65229.25;;;21.32;78.22
6833;BME280;3454;42.654;23.378;2023-07-13T02:25:56;65237.53;;;21.40;78.02
6833;BME280;3454;42.654;23.378;2023-07-13T02:28:22;65243.44;;;21.43;77.73
6833;BME280;3454;42.654;23.378;2023-07-13T02:30:47;65236.97;;;21.39;78.65
6833;BME280;3454;42.654;23.378;2023-07-13T02:33:13;65229.81;;;21.33;78.24
6833;BME280;3454;42.654;23.378;2023-07-13T02:35:38;65231.44;;;21.34;78.31
6833;BME280;3454;42.654;23.378;2023-07-13T02:38:04;65245.06;;;21.44;77.30
6833;BME280;3454;42.654;23.378;2023-07-13T02:40:30;65228.13;;;21.31;78.48
6833;BME280;3454;42.654;23.378;2023-07-13T02:42:58;65230.34;;;21.33;77.78
6833;BME280;3454;42.654;23.378;2023-07-13T02:45:23;65222.97;;;21.24;77.81
6833;BME280;3454;42.654;23.378;2023-07-13T02:47:49;65225.72;;;21.27;77.95
6833;BME280;3454;42.654;23.378;2023-07-13T02:50:14;65221.50;;;21.25;78.23
6833;BME280;3454;42.654;23.378;2023-07-13T02:52:40;65223.34;;;21.29;78.50
6833;BME280;3454;42.654;23.378;2023-07-13T02:55:05;65238.44;;;21.38;77.05
6833;BME280;3454;42.654;23.378;2023-07-13T02:57:31;65233.66;;;21.36;76.89
6833;BME280;3454;42.654;23.378;2023-07-13T02:59:58;65236.44;;;21.39;76.70
6833;BME280;3454;42.654;23.378;2023-07-13T03:02:24;65232.19;;;21.37;76.59
6833;BME280;3454;42.654;23.378;2023-07-13T03:04:50;65236.09;;;21.41;76.60
6833;BME280;3454;42.654;23.378;2023-07-13T03:07:16;65224.66;;;21.33;77.29
6833;BME280;3454;42.654;23.378;2023-07-13T03:09:41;65230.34;;;21.33;77.69
6833;BME280;3454;42.654;23.378;2023-07-13T03:12:07;65236.97;;;21.39;77.65
6833;BME280;3454;42.654;23.378;2023-07-13T03:14:32;65245.63;;;21.45;77.66
6833;BME280;3454;42.654;23.378;2023-07-13T03:16:58;65238.09;;;21.40;77.67
6833;BME280;3454;42.654;23.378;2023-07-13T03:19:24;65241.03;;;21.45;77.62
6833;BME280;3454;42.654;23.378;2023-07-13T03:21:50;65251.91;;;21.53;77.69
6833;BME280;3454;42.654;23.378;2023-07-13T03:24:16;65244.72;;;21.46;78.03
6833;BME280;3454;42.654;23.378;2023-07-13T03:26:41;65248.25;;;21.52;78.02
6833;BME280;3454;42.654;23.378;2023-07-13T03:29:07;65244.72;;;21.46;78.21
6833;BME280;3454;42.654;23.378;2023-07-13T03:31:34;65248.59;;;21.50;80.26
6833;BME280;3454;42.654;23.378;2023-07-13T03:34:00;65254.66;;;21.55;78.92
6833;BME280;3454;42.654;23.378;2023-07-13T03:36:28;65247.84;;;21.47;78.32
6833;BME280;3454;42.654;23.378;2023-07-13T03:38:56;65230.91;;;21.34;78.76
6833;BME280;3454;42.654;23.378;2023-07-13T03:41:23;65239.00;;;21.39;79.04
6833;BME280;3454;42.654;23.378;2023-07-13T03:43:50;65241.41;;;21.43;78.61
6833;BME280;3454;42.654;23.378;2023-07-13T03:46:16;65225.56;;;21.31;79.60
6833;BME280;3454;42.654;23.378;2023-07-13T03:48:44;65230.34;;;21.33;79.68
6833;BME280;3454;42.654;23.378;2023-07-13T03:51:12;65254.13;;;21.55;79.23
6833;BME280;3454;42.654;23.378;2023-07-13T03:53:41;65256.88;;;21.57;79.00
6833;BME280;3454;42.654;23.378;2023-07-13T03:56:07;65250.59;;;21.49;79.43
6833;BME280;3454;42.654;23.378;2023-07-13T03:58:38;65238.84;;;21.43;79.80
6833;BME280;3454;42.654;23.378;2023-07-13T04:01:06;65245.28;;;21.47;80.25
6833;BME280;3454;42.654;23.378;2023-07-13T04:03:33;65256.34;;;21.57;80.36
6833;BME280;3454;42.654;23.378;2023-07-13T04:06:00;65275.84;;;21.70;79.24
6833;BME280;3454;42.654;23.378;2023-07-13T04:08:32;65256.88;;;21.57;80.13
6833;BME280;3454;42.654;23.378;2023-07-13T04:11:03;65293.97;;;21.91;79.35
6833;BME280;3454;42.654;23.378;2023-07-13T04:13:29;65303.41;;;22.00;78.48
6833;BME280;3454;42.654;23.378;2023-07-13T04:15:56;65319.25;;;22.12;78.84
6833;BME280;3454;42.654;23.378;2023-07-13T04:18:22;65332.16;;;22.26;90.11
6833;BME280;3454;42.654;23.378;2023-07-13T04:20:48;65332.34;;;22.28;86.45
6833;BME280;3454;42.654;23.378;2023-07-13T04:23:16;65358.72;;;22.50;91.18
6833;BME280;3454;42.654;23.378;2023-07-13T04:25:48;65414.47;;;22.98;86.97
6833;BME280;3454;42.654;23.378;2023-07-13T04:28:15;65430.72;;;23.15;85.29
6833;BME280;3454;42.654;23.378;2023-07-13T04:30:43;65431.28;;;23.16;82.05
6833;BME280;3454;42.654;23.378;2023-07-13T04:33:08;65429.44;;;23.12;80.99
6833;BME280;3454;42.654;23.378;2023-07-13T04:35:34;65420.00;;;23.03;82.45
6833;BME280;3454;42.654;23.378;2023-07-13T04:38:00;65420.41;;;23.08;82.15
6833;BME280;3454;42.654;23.378;2023-07-13T04:40:27;65403.22;;;22.93;81.40
6833;BME280;3454;42.654;23.378;2023-07-13T04:42:53;65419.28;;;23.07;81.41
6833;BME280;3454;42.654;23.378;2023-07-13T04:45:18;65450.34;;;23.35;79.30
6833;BME280;3454;42.654;23.378;2023-07-13T04:47:44;65435.72;;;23.20;83.45
6833;BME280;3454;42.654;23.378;2023-07-13T04:50:12;65446.47;;;23.32;79.02
6833;BME280;3454;42.654;23.378;2023-07-13T04:52:41;65461.78;;;23.44;77.07
6833;BME280;3454;42.654;23.378;2023-07-13T04:55:08;65439.06;;;23.23;81.12
6833;BME280;3454;42.654;23.378;2023-07-13T04:57:33;65417.63;;;23.06;84.43
6833;BME280;3454;42.654;23.378;2023-07-13T04:59:59;65419.28;;;23.07;83.85
6833;BME280;3454;42.654;23.378;2023-07-13T05:02:26;65428.16;;;23.15;79.47
6833;BME280;3454;42.654;23.378;2023-07-13T05:04:53;65437.94;;;23.22;76.41
6833;BME280;3454;42.654;23.378;2023-07-13T05:07:19;65422.63;;;23.10;77.31
6833;BME280;3454;42.654;23.378;2023-07-13T05:09:44;65432.94;;;23.17;75.99
6833;BME280;3454;42.654;23.378;2023-07-13T05:12:10;65421.50;;;23.09;74.38
6833;BME280;3454;42.654;23.378;2023-07-13T05:14:36;65425.19;;;23.10;76.12
6833;BME280;3454;42.654;23.378;2023-07-13T05:17:02;65408.78;;;22.98;76.00
6833;BME280;3454;42.654;23.378;2023-07-13T05:19:28;65408.22;;;22.97;75.79
6833;BME280;3454;42.654;23.378;2023-07-13T05:21:54;65415.97;;;23.04;74.76
6833;BME280;3454;42.654;23.378;2023-07-13T05:24:19;65431.50;;;23.18;73.58
6833;BME280;3454;42.654;23.378;2023-07-13T05:26:45;65408.22;;;22.97;74.44
6833;BME280;3454;42.654;23.378;2023-07-13T05:29:11;65415.22;;;23.01;74.87
6833;BME280;3454;42.654;23.378;2023-07-13T05:31:36;65413.22;;;23.02;75.72
6833;BME280;3454;42.654;23.378;2023-07-13T05:34:02;65418.56;;;23.04;74.11
6833;BME280;3454;42.654;23.378;2023-07-13T05:36:28;65426.31;;;23.11;74.20
6833;BME280;3454;42.654;23.378;2023-07-13T05:38:55;65433.72;;;23.20;75.09
6833;BME280;3454;42.654;23.378;2023-07-13T05:41:20;65450.69;;;23.33;80.32
6833;BME280;3454;42.654;23.378;2023-07-13T05:43:45;65455.13;;;23.38;74.52
6833;BME280;3454;42.654;23.378;2023-07-13T05:46:11;65459.75;;;23.44;75.70
6833;BME280;3454;42.654;23.378;2023-07-13T05:48:36;65478.41;;;23.59;74.27
6833;BME280;3454;42.654;23.378;2023-07-13T05:51:02;65487.47;;;23.69;75.88
6833;BME280;3454;42.654;23.378;2023-07-13T05:53:28;65503.34;;;23.81;73.92
6833;BME280;3454;42.654;23.378;2023-07-13T05:55:54;65513.09;;;23.88;75.90
6833;BME280;3454;42.654;23.378;2023-07-13T05:58:20;65513.50;;;23.93;74.73
6833;BME280;3454;42.654;23.378;2023-07-13T06:00:47;65521.63;;;23.98;76.51
6833;BME280;3454;42.654;23.378;2023-07-13T06:03:15;65523.31;;;23.99;73.47
6833;BME280;3454;42.654;23.378;2023-07-13T06:05:41;65514.97;;;23.92;74.02
6833;BME280;3454;42.654;23.378;2023-07-13T06:08:07;65499.66;;;23.80;76.76
6833;BME280;3454;42.654;23.378;2023-07-13T06:10:37;65527.41;;;24.05;74.85
6833;BME280;3454;42.654;23.378;2023-07-13T06:13:02;65539.38;;;24.14;75.36
6833;BME280;3454;42.654;23.378;2023-07-13T06:15:28;65535.16;;;24.12;76.57
6833;BME280;3454;42.654;23.378;2023-07-13T06:17:54;65547.88;;;24.24;78.02
6833;BME280;3454;42.654;23.378;2023-07-13T06:20:20;65564.53;;;24.39;77.16
6833;BME280;3454;42.654;23.378;2023-07-13T06:22:45;65591.16;;;24.63;76.84
6833;BME280;3454;42.654;23.378;2023-07-13T06:25:11;65607.81;;;24.78;74.54
6833;BME280;3454;42.654;23.378;2023-07-13T06:27:36;65617.06;;;24.84;72.49
6833;BME280;3454;42.654;23.378;2023-07-13T06:30:02;65632.22;;;25.01;69.02
6833;BME280;3454;42.654;23.378;2023-07-13T06:32:28;65635.91;;;25.02;70.57
6833;BME280;3454;42.654;23.378;2023-07-13T06:34:53;65631.09;;;24.99;68.88
6833;BME280;3454;42.654;23.378;2023-07-13T06:37:19;65644.44;;;25.12;68.82
6833;BME280;3454;42.654;23.378;2023-07-13T06:39:44;65642.22;;;25.10;66.40
6833;BME280;3454;42.654;23.378;2023-07-13T06:42:10;65642.22;;;25.10;69.27
6833;BME280;3454;42.654;23.378;2023-07-13T06:44:36;65659.22;;;25.23;70.84
6833;BME280;3454;42.654;23.378;2023-07-13T06:47:02;65678.84;;;25.43;72.74
6833;BME280;3454;42.654;23.378;2023-07-13T06:49:28;65697.34;;;25.62;70.64
6833;BME280;3454;42.654;23.378;2023-07-13T06:51:54;65727.16;;;25.87;69.28
6833;BME280;3454;42.654;23.378;2023-07-13T06:54:19;65730.50;;;25.90;66.74
6833;BME280;3454;42.654;23.378;2023-07-13T06:56:45;65725.47;;;25.85;64.84
6833;BME280;3454;42.654;23.378;2023-07-13T06:59:10;65718.25;;;25.78;66.31
6833;BME280;3454;42.654;23.378;2023-07-13T07:01:36;65730.50;;;25.90;68.76
6833;BME280;3454;42.654;23.378;2023-07-13T07:04:03;65743.25;;;26.01;66.79
6833;BME280;3454;42.654;23.378;2023-07-13T07:06:29;65761.41;;;26.15;65.01
6833;BME280;3454;42.654;23.378;2023-07-13T07:08:54;65751.78;;;26.11;65.51
6833;BME280;3454;42.654;23.378;2023-07-13T07:11:23;65762.91;;;26.21;63.77
6833;BME280;3454;42.654;23.378;2023-07-13T07:13:49;65764.38;;;26.20;64.35
6833;BME280;3454;42.654;23.378;2023-07-13T07:16:15;65771.97;;;26.25;63.14
6833;BME280;3454;42.654;23.378;2023-07-13T07:18:41;65775.47;;;26.30;65.10
6833;BME280;3454;42.654;23.378;2023-07-13T07:21:07;65795.47;;;26.48;63.38
6833;BME280;3454;42.654;23.378;2023-07-13T07:23:32;65808.25;;;26.60;60.42
6833;BME280;3454;42.654;23.378;2023-07-13T07:25:58;65821.06;;;26.72;61.96
6833;BME280;3454;42.654;23.378;2023-07-13T07:28:24;65827.34;;;26.80;60.77
6833;BME280;3454;42.654;23.378;2023-07-13T07:30:53;65836.41;;;26.83;59.58
6833;BME280;3454;42.654;23.378;2023-07-13T07:33:19;65844.94;;;26.93;58.47
6833;BME280;3454;42.654;23.378;2023-07-13T07:35:45;65850.50;;;26.98;59.85
6833;BME280;3454;42.654;23.378;2023-07-13T07:38:10;65839.03;;;26.90;61.29
6833;BME280;3454;42.654;23.378;2023-07-13T07:40:40;65863.84;;;27.10;60.07
6833;BME280;3454;42.654;23.378;2023-07-13T07:43:07;65866.06;;;27.12;59.53
6833;BME280;3454;42.654;23.378;2023-07-13T07:45:33;65873.47;;;27.21;60.54
6833;BME280;3454;42.654;23.378;2023-07-13T07:47:58;65879.97;;;27.25;62.98
6833;BME280;3454;42.654;23.378;2023-07-13T07:50:28;65896.84;;;27.42;60.68
6833;BME280;3454;42.654;23.378;2023-07-13T07:52:54;65925.00;;;27.66;60.55
6833;BME280;3454;42.654;23.378;2023-07-13T07:55:22;65941.69;;;27.81;60.88
6833;BME280;3454;42.654;23.378;2023-07-13T07:57:47;65963.41;;;28.00;54.70
6833;BME280;3454;42.654;23.378;2023-07-13T08:00:14;65958.41;;;27.96;54.46
6833;BME280;3454;42.654;23.378;2023-07-13T08:02:40;65955.06;;;27.93;55.52
6833;BME280;3454;42.654;23.378;2023-07-13T08:05:07;65961.94;;;28.01;55.89
6833;BME280;3454;42.654;23.378;2023-07-13T08:07:33;65983.44;;;28.18;57.61
6833;BME280;3454;42.654;23.378;2023-07-13T08:09:59;66002.91;;;28.36;56.19
6833;BME280;3454;42.654;23.378;2023-07-13T08:12:24;65999.56;;;28.33;53.57
6833;BME280;3454;42.654;23.378;2023-07-13T08:14:50;66003.47;;;28.37;53.13
6833;BME280;3454;42.654;23.378;2023-07-13T08:17:20;65992.91;;;28.27;55.06
6833;BME280;3454;42.654;23.378;2023-07-13T08:19:46;66014.59;;;28.47;54.40
6833;BME280;3454;42.654;23.378;2023-07-13T08:22:11;66029.81;;;28.63;55.03
6833;BME280;3454;42.654;23.378;2023-07-13T08:24:38;66029.09;;;28.60;53.74
6833;BME280;3454;42.654;23.378;2023-07-13T08:27:04;66045.78;;;28.75;54.39
6833;BME280;3454;42.654;23.378;2023-07-13T08:29:30;66038.00;;;28.68;54.65
6833;BME280;3454;42.654;23.378;2023-07-13T08:32:00;66074.19;;;29.00;57.24
6833;BME280;3454;42.654;23.378;2023-07-13T08:34:26;66085.31;;;29.11;55.91
6833;BME280;3454;42.654;23.378;2023-07-13T08:36:51;66112.22;;;29.37;55.93
6833;BME280;3454;42.654;23.378;2023-07-13T08:39:17;66134.88;;;29.55;55.65
6833;BME280;3454;42.654;23.378;2023-07-13T08:41:49;66136.72;;;29.59;56.21
6833;BME280;3454;42.654;23.378;2023-07-13T08:44:27;66163.50;;;29.83;55.61
6833;BME280;3454;42.654;23.378;2023-07-13T08:46:58;66168.69;;;29.91;55.60
6833;BME280;3454;42.654;23.378;2023-07-13T08:49:25;66194.16;;;30.11;53.29
6833;BME280;3454;42.654;23.378;2023-07-13T08:52:00;66205.28;;;30.21;53.48
6833;BME280;3454;42.654;23.378;2023-07-13T08:54:33;66206.03;;;30.24;53.18
6833;BME280;3454;42.654;23.378;2023-07-13T08:57:03;66235.22;;;30.46;53.20
6833;BME280;3454;42.654;23.378;2023-07-13T08:59:35;66235.94;;;30.49;52.67
6833;BME280;3454;42.654;23.378;2023-07-13T09:02:34;66195.09;;;30.10;50.71
6833;BME280;3454;42.654;23.378;2023-07-13T09:05:11;66209.19;;;30.25;49.72
6833;BME280;3454;42.654;23.378;2023-07-13T09:15:47;66296.38;;;31.06;48.28
6833;BME280;3454;42.654;23.378;2023-07-13T09:20:50;66340.81;;;31.43;49.08
6833;BME280;3454;42.654;23.378;2023-07-13T09:23:21;66354.22;;;31.56;49.70
6833;BME280;3454;42.654;23.378;2023-07-13T09:25:52;66378.03;;;31.75;48.39
6833;BME280;3454;42.654;23.378;2023-07-13T09:28:43;66396.44;;;31.91;50.23
6833;BME280;3454;42.654;23.378;2023-07-13T09:31:20;66345.13;;;31.45;47.61
6833;BME280;3454;42.654;23.378;2023-07-13T09:33:47;66365.56;;;31.68;45.58
6833;BME280;3454;42.654;23.378;2023-07-13T09:36:20;66412.81;;;32.08;45.26
6833;BME280;3454;42.654;23.378;2023-07-13T09:38:48;66451.34;;;32.43;45.30
6833;BME280;3454;42.654;23.378;2023-07-13T09:44:11;66480.38;;;32.69;46.38
6833;BME280;3454;42.654;23.378;2023-07-13T09:46:42;66483.19;;;32.72;47.19
6833;BME280;3454;42.654;23.378;2023-07-13T09:49:10;66478.16;;;32.67;44.56
6833;BME280;3454;42.654;23.378;2023-07-13T09:51:37;66440.72;;;32.34;42.89
6833;BME280;3454;42.654;23.378;2023-07-13T09:54:03;66418.94;;;32.14;42.29
6833;BME280;3454;42.654;23.378;2023-07-13T09:56:29;66405.56;;;32.02;41.85
6833;BME280;3454;42.654;23.378;2023-07-13T09:58:55;66415.63;;;32.11;42.68
6833;BME280;3454;42.654;23.378;2023-07-13T10:01:38;66505.53;;;32.92;43.80
6833;BME280;3454;42.654;23.378;2023-07-13T10:04:17;66530.69;;;33.15;39.99
6833;BME280;3454;42.654;23.378;2023-07-13T10:06:46;66563.44;;;33.42;40.49
6833;BME280;3454;42.654;23.378;2023-07-13T10:09:16;66566.44;;;33.47;41.05
6833;BME280;3454;42.654;23.378;2023-07-13T10:11:42;66587.84;;;33.68;40.54
6833;BME280;3454;42.654;23.378;2023-07-13T10:14:16;66610.03;;;33.86;39.91
6833;BME280;3454;42.654;23.378;2023-07-13T10:16:45;66615.06;;;33.91;40.12
6833;BME280;3454;42.654;23.378;2023-07-13T10:19:20;66587.66;;;33.66;41.20
6833;BME280;3454;42.654;23.378;2023-07-13T10:21:54;66656.44;;;34.28;39.46
6833;BME280;3454;42.654;23.378;2023-07-13T10:24:31;66655.31;;;34.27;39.03
6833;BME280;3454;42.654;23.378;2023-07-13T10:27:10;66653.28;;;34.27;39.74
6833;BME280;3454;42.654;23.378;2023-07-13T10:29:48;66728.63;;;34.93;38.63
6833;BME280;3454;42.654;23.378;2023-07-13T10:32:15;66739.25;;;35.02;37.01
6833;BME280;3454;42.654;23.378;2023-07-13T10:34:44;66695.22;;;34.65;37.66
6833;BME280;3454;42.654;23.378;2023-07-13T10:40:13;66776.34;;;35.38;37.72
6833;BME280;3454;42.654;23.378;2023-07-13T10:42:42;66759.97;;;35.21;37.89
6833;BME280;3454;42.654;23.378;2023-07-13T10:45:21;66817.03;;;35.72;38.68
6833;BME280;3454;42.654;23.378;2023-07-13T10:47:49;66850.25;;;36.04;37.92
6833;BME280;3454;42.654;23.378;2023-07-13T10:50:25;66864.84;;;36.17;35.37
6833;BME280;3454;42.654;23.378;2023-07-13T10:52:55;66840.75;;;35.96;35.79
6833;BME280;3454;42.654;23.378;2023-07-13T10:58:19;66820.03;;;35.77;36.46
6833;BME280;3454;42.654;23.378;2023-07-13T11:03:24;66818.91;;;35.76;29.94
6833;BME280;3454;42.654;23.378;2023-07-13T11:06:05;66866.50;;;36.19;31.92
6833;BME280;3454;42.654;23.378;2023-07-13T11:08:37;66842.25;;;35.95;27.68
6833;BME280;3454;42.654;23.378;2023-07-13T11:18:49;67004.94;;;37.43;28.80
6833;BME280;3454;42.654;23.378;2023-07-13T11:21:20;66993.53;;;37.31;27.83
6833;BME280;3454;42.654;23.378;2023-07-13T11:23:54;66943.28;;;36.88;28.08
6833;BME280;3454;42.654;23.378;2023-07-13T11:31:54;67012.22;;;37.50;28.32
6833;BME280;3454;42.654;23.378;2023-07-13T11:34:38;67016.16;;;37.53;26.43
6833;BME280;3454;42.654;23.378;2023-07-13T11:37:11;67030.13;;;37.66;28.49
6833;BME280;3454;42.654;23.378;2023-07-13T11:39:41;66977.44;;;37.19;26.17
6833;BME280;3454;42.654;23.378;2023-07-13T11:42:12;66993.72;;;37.33;27.16
6833;BME280;3454;42.654;23.378;2023-07-13T11:44:45;66976.16;;;37.15;28.31
6833;BME280;3454;42.654;23.378;2023-07-13T11:47:16;66991.28;;;37.29;30.19
6833;BME280;3454;42.654;23.378;2023-07-13T11:49:54;66873.22;;;36.25;31.35
6833;BME280;3454;42.654;23.378;2023-07-13T11:52:35;66885.38;;;36.34;30.61
6833;BME280;3454;42.654;23.378;2023-07-13T11:55:18;66897.31;;;36.47;30.17
6833;BME280;3454;42.654;23.378;2023-07-13T11:57:56;66899.00;;;36.48;28.21
6833;BME280;3454;42.654;23.378;2023-07-13T12:00:26;66917.31;;;36.62;27.63
6833;BME280;3454;42.654;23.378;2023-07-13T12:02:56;66964.00;;;37.07;27.16
6833;BME280;3454;42.654;23.378;2023-07-13T12:05:23;66974.09;;;37.16;27.17
6833;BME280;3454;42.654;23.378;2023-07-13T12:07:49;66931.31;;;36.75;27.14
6833;BME280;3454;42.654;23.378;2023-07-13T12:10:21;66961.75;;;37.04;28.11
6833;BME280;3454;42.654;23.378;2023-07-13T12:12:58;66934.28;;;36.80;26.92
6833;BME280;3454;42.654;23.378;2023-07-13T12:15:40;67043.06;;;37.77;27.52
6833;BME280;3454;42.654;23.378;2023-07-13T12:18:20;66994.28;;;37.34;27.40
6833;BME280;3454;42.654;23.378;2023-07-13T12:20:48;66969.03;;;37.11;26.63
6833;BME280;3454;42.654;23.378;2023-07-13T12:23:32;66964.56;;;37.07;27.05
6833;BME280;3454;42.654;23.378;2023-07-13T12:26:01;67038.56;;;37.73;27.68
6833;BME280;3454;42.654;23.378;2023-07-13T12:28:37;67034.06;;;37.69;27.37
6833;BME280;3454;42.654;23.378;2023-07-13T12:31:06;67015.41;;;37.50;26.31
6833;BME280;3454;42.654;23.378;2023-07-13T12:33:33;67084.38;;;38.12;26.43
6833;BME280;3454;42.654;23.378;2023-07-13T12:36:03;67143.47;;;38.68;27.56
6833;BME280;3454;42.654;23.378;2023-07-13T12:38:32;67141.22;;;38.65;25.33
6833;BME280;3454;42.654;23.378;2023-07-13T12:40:58;67160.31;;;38.83;27.81
6833;BME280;3454;42.654;23.378;2023-07-13T12:43:25;67147.97;;;38.72;25.29
6833;BME280;3454;42.654;23.378;2023-07-13T12:45:56;67107.00;;;38.35;26.44
6833;BME280;3454;42.654;23.378;2023-07-13T12:48:21;67117.09;;;38.44;24.94
6833;BME280;3454;42.654;23.378;2023-07-13T12:50:48;67184.59;;;39.07;27.37
6833;BME280;3454;42.654;23.378;2023-07-13T12:53:23;67165.75;;;38.85;26.68
6833;BME280;3454;42.654;23.378;2023-07-13T12:55:55;67199.03;;;39.17;26.24
6833;BME280;3454;42.654;23.378;2023-07-13T12:58:28;67226.53;;;39.42;26.26
6833;BME280;3454;42.654;23.378;2023-07-13T13:00:55;67231.97;;;39.44;26.97
6833;BME280;3454;42.654;23.378;2023-07-13T13:03:26;67182.75;;;39.03;26.59
6833;BME280;3454;42.654;23.378;2023-07-13T13:06:02;67208.97;;;39.24;28.48
6833;BME280;3454;42.654;23.378;2023-07-13T13:08:29;67222.59;;;39.38;28.12
6833;BME280;3454;42.654;23.378;2023-07-13T13:10:55;67204.66;;;39.22;27.38
6833;BME280;3454;42.654;23.378;2023-07-13T13:13:21;67144.03;;;38.68;26.21
6833;BME280;3454;42.654;23.378;2023-07-13T13:15:46;67075.00;;;38.06;27.64
6833;BME280;3454;42.654;23.378;2023-07-13T13:18:21;67089.03;;;38.19;27.13
6833;BME280;3454;42.654;23.378;2023-07-13T13:20:47;67107.56;;;38.35;26.35
6833;BME280;3454;42.654;23.378;2023-07-13T13:23:15;67090.69;;;38.20;26.67
6833;BME280;3454;42.654;23.378;2023-07-13T13:25:44;67092.41;;;38.22;27.46
6833;BME280;3454;42.654;23.378;2023-07-13T13:28:14;67081.19;;;38.12;26.69
6833;BME280;3454;42.654;23.378;2023-07-13T13:30:42;67164.22;;;38.86;26.74
6833;BME280;3454;42.654;23.378;2023-07-13T13:33:13;67170.22;;;38.89;26.12
6833;BME280;3454;42.654;23.378;2023-07-13T13:35:40;67172.06;;;38.93;28.13
6833;BME280;3454;42.654;23.378;2023-07-13T13:38:15;67208.41;;;39.23;27.06
6833;BME280;3454;42.654;23.378;2023-07-13T13:40:45;67224.44;;;39.42;26.75
6833;BME280;3454;42.654;23.378;2023-07-13T13:43:24;67183.88;;;39.04;25.85
6833;BME280;3454;42.654;23.378;2023-07-13T13:45:58;67148.53;;;38.72;26.77
6833;BME280;3454;42.654;23.378;2023-07-13T13:48:33;67177.69;;;38.98;26.48
6833;BME280;3454;42.654;23.378;2023-07-13T13:51:00;67169.13;;;38.88;25.94
6833;BME280;3454;42.654;23.378;2023-07-13T13:53:26;67162.56;;;38.85;26.41